createdAt,value
2022-11-25T00:01:15.663Z,9.15
2022-11-25T00:02:47.547Z,9.15
2022-11-25T00:04:19.256Z,9.17
2022-11-25T00:05:50.898Z,9.19
2022-11-25T00:07:22.595Z,9.19
2022-11-25T00:08:57.515Z,9.18
2022-11-25T00:10:29.139Z,9.17
2022-11-25T00:12:00.820Z,9.18
2022-11-25T00:13:32.946Z,9.22
2022-11-25T00:15:05.313Z,9.23
2022-11-25T00:16:37.064Z,9.23
2022-11-25T00:18:08.726Z,9.23
2022-11-25T00:19:40.337Z,9.21
2022-11-25T00:21:13.792Z,9.19
2022-11-25T00:22:45.436Z,9.14
2022-11-25T00:24:18.438Z,9.17
2022-11-25T00:25:50.099Z,9.17
2022-11-25T00:27:21.811Z,9.17
2022-11-25T00:28:54.555Z,9.20
2022-11-25T00:30:26.153Z,9.20
2022-11-25T00:31:58.516Z,9.24
2022-11-25T00:33:30.153Z,9.24
2022-11-25T00:35:01.770Z,9.23
2022-11-25T00:36:35.246Z,9.22
2022-11-25T00:38:06.990Z,9.23
2022-11-25T00:39:39.955Z,9.20
2022-11-25T00:41:30.426Z,9.18
2022-11-25T00:43:20.354Z,9.24
2022-11-25T00:44:51.965Z,9.27
2022-11-25T00:46:23.628Z,9.29
2022-11-25T00:47:55.255Z,9.28
2022-11-25T00:49:26.993Z,9.27
2022-11-25T00:50:58.618Z,9.25
2022-11-25T00:52:30.318Z,9.28
2022-11-25T00:54:02.181Z,9.27
2022-11-25T00:55:55.132Z,9.24
2022-11-25T00:57:26.936Z,9.23
2022-11-25T00:58:58.834Z,9.25
2022-11-25T01:00:30.444Z,9.26
2022-11-25T01:02:02.316Z,9.24
2022-11-25T01:03:34.912Z,9.30
2022-11-25T01:05:07.136Z,9.31
2022-11-25T01:06:39.688Z,9.37
2022-11-25T01:08:11.315Z,9.41
2022-11-25T01:09:43.089Z,9.41
2022-11-25T01:11:18.691Z,9.45
2022-11-25T01:12:50.273Z,9.49
2022-11-25T01:14:22.660Z,9.51
2022-11-25T01:15:55.940Z,9.52
2022-11-25T01:17:28.222Z,9.51
2022-11-25T01:19:00.462Z,9.50
2022-11-25T01:20:32.123Z,9.50
2022-11-25T01:22:04.366Z,9.53
2022-11-25T01:23:36.526Z,9.55
2022-11-25T01:25:08.605Z,9.55
2022-11-25T01:26:42.138Z,9.55
2022-11-25T01:28:13.941Z,9.57
2022-11-25T01:29:45.552Z,9.56
2022-11-25T01:31:20.520Z,9.58
2022-11-25T01:32:52.269Z,9.61
2022-11-25T01:34:25.843Z,9.61
2022-11-25T01:35:57.459Z,9.63
2022-11-25T01:37:29.065Z,9.61
2022-11-25T01:39:01.174Z,9.61
2022-11-25T01:40:32.734Z,9.65
2022-11-25T01:42:05.799Z,9.68
2022-11-25T01:43:37.730Z,9.66
2022-11-25T01:45:35.316Z,9.67
2022-11-25T01:47:14.875Z,9.66
2022-11-25T01:48:52.788Z,9.67
2022-11-25T01:50:26.386Z,9.66
2022-11-25T01:52:02.764Z,9.66
2022-11-25T01:53:34.431Z,9.65
2022-11-25T01:55:10.912Z,9.62
2022-11-25T01:56:48.079Z,9.63
2022-11-25T01:58:25.427Z,9.67
2022-11-25T02:00:01.931Z,9.67
2022-11-25T02:01:35.916Z,9.67
2022-11-25T02:03:08.812Z,9.67
2022-11-25T02:04:41.835Z,9.71
2022-11-25T02:06:20.533Z,9.73
2022-11-25T02:07:54.060Z,9.70
2022-11-25T02:09:27.166Z,9.69
2022-11-25T02:11:01.450Z,9.69
2022-11-25T02:12:35.917Z,9.74
2022-11-25T02:14:12.281Z,9.75
2022-11-25T02:15:43.915Z,9.74
2022-11-25T02:17:15.530Z,9.76
2022-11-25T02:18:47.277Z,9.77
2022-11-25T02:20:20.820Z,9.76
2022-11-25T02:21:58.912Z,9.75
2022-11-25T02:23:39.215Z,9.74
2022-11-25T02:25:15.608Z,9.74
2022-11-25T02:26:47.677Z,9.75
2022-11-25T02:28:22.106Z,9.78
2022-11-25T02:29:54.320Z,9.83
2022-11-25T02:31:25.992Z,9.84
2022-11-25T02:32:59.467Z,9.86
2022-11-25T02:34:31.139Z,9.90
2022-11-25T02:36:06.823Z,9.91
2022-11-25T02:37:38.455Z,9.95
2022-11-25T02:39:10.347Z,9.95
2022-11-25T02:40:47.732Z,9.98
2022-11-25T02:42:21.784Z,9.98
2022-11-25T02:43:53.879Z,9.99
2022-11-25T02:45:42.270Z,10.01
2022-11-25T02:47:13.919Z,10.01
2022-11-25T02:49:07.825Z,10.05
2022-11-25T02:50:37.641Z,10.07
2022-11-25T02:52:09.308Z,10.09
2022-11-25T02:53:41.569Z,10.09
2022-11-25T02:55:13.234Z,10.07
2022-11-25T02:56:46.308Z,10.10
2022-11-25T02:58:19.683Z,10.13
2022-11-25T02:59:51.294Z,10.13
2022-11-25T03:01:24.006Z,10.13
2022-11-25T03:02:55.781Z,10.14
2022-11-25T03:04:27.532Z,10.17
2022-11-25T03:05:59.127Z,10.18
2022-11-25T03:07:30.859Z,10.21
2022-11-25T03:09:05.049Z,10.22
2022-11-25T03:10:37.390Z,10.24
2022-11-25T03:12:19.369Z,10.23
2022-11-25T03:13:51.115Z,10.27
2022-11-25T03:15:22.925Z,10.29
2022-11-25T03:16:54.593Z,10.30
2022-11-25T03:18:26.625Z,10.31
2022-11-25T03:19:58.615Z,10.30
2022-11-25T03:21:30.347Z,10.30
2022-11-25T03:23:02.288Z,10.30
2022-11-25T03:24:34.347Z,10.29
2022-11-25T03:26:07.062Z,10.30
2022-11-25T03:27:40.975Z,10.30
2022-11-25T03:29:12.983Z,10.32
2022-11-25T03:30:44.808Z,10.32
2022-11-25T03:32:17.338Z,10.34
2022-11-25T03:33:49.346Z,10.37
2022-11-25T03:35:21.595Z,10.35
2022-11-25T03:36:53.294Z,10.37
2022-11-25T03:38:27.405Z,10.36
2022-11-25T03:39:59.214Z,10.37
2022-11-25T03:41:31.012Z,10.38
2022-11-25T03:43:05.309Z,10.40
2022-11-25T03:44:37.438Z,10.39
2022-11-25T03:46:09.379Z,10.39
2022-11-25T03:47:42.976Z,10.40
2022-11-25T03:49:14.721Z,10.41
2022-11-25T03:50:48.119Z,10.43
2022-11-25T03:52:19.924Z,10.44
2022-11-25T03:53:51.645Z,10.43
2022-11-25T03:55:23.465Z,10.44
2022-11-25T03:56:55.313Z,10.44
2022-11-25T03:58:28.520Z,10.43
2022-11-25T04:00:01.959Z,10.43
2022-11-25T04:01:43.849Z,10.40
2022-11-25T04:03:15.962Z,10.36
2022-11-25T04:04:47.667Z,10.34
2022-11-25T04:06:21.638Z,10.36
2022-11-25T04:07:57.929Z,10.31
2022-11-25T04:09:30.217Z,10.33
2022-11-25T04:11:04.847Z,10.31
2022-11-25T04:12:49.233Z,10.30
2022-11-25T04:14:29.601Z,10.31
2022-11-25T04:16:01.271Z,10.33
2022-11-25T04:17:33.176Z,10.34
2022-11-25T04:19:05.503Z,10.36
2022-11-25T04:20:37.175Z,10.38
2022-11-25T04:22:12.052Z,10.40
2022-11-25T04:23:47.418Z,10.43
2022-11-25T04:25:20.269Z,10.44
2022-11-25T04:26:52.299Z,10.46
2022-11-25T04:28:24.810Z,10.46
2022-11-25T04:29:58.118Z,10.49
2022-11-25T04:31:29.882Z,10.52
2022-11-25T04:33:02.211Z,10.54
2022-11-25T04:34:34.712Z,10.52
2022-11-25T04:36:08.540Z,10.52
2022-11-25T04:37:40.549Z,10.52
2022-11-25T04:39:14.064Z,10.54
2022-11-25T04:40:45.753Z,10.52
2022-11-25T04:42:31.570Z,10.52
2022-11-25T04:44:04.707Z,10.54
2022-11-25T04:45:58.963Z,10.51
2022-11-25T04:47:30.179Z,10.52
2022-11-25T04:49:02.043Z,10.51
2022-11-25T04:50:34.195Z,10.51
2022-11-25T04:52:11.043Z,10.51
2022-11-25T04:53:43.939Z,10.54
2022-11-25T04:55:16.614Z,10.52
2022-11-25T04:56:48.440Z,10.51
2022-11-25T04:58:40.378Z,10.51
2022-11-25T05:00:13.767Z,10.52
2022-11-25T05:01:46.876Z,10.52
2022-11-25T05:03:44.971Z,10.51
2022-11-25T05:05:20.324Z,10.48
2022-11-25T05:06:52.001Z,10.50
2022-11-25T05:08:24.869Z,10.50
2022-11-25T05:09:57.115Z,10.53
2022-11-25T05:11:50.653Z,10.51
2022-11-25T05:13:22.324Z,10.53
2022-11-25T05:14:54.178Z,10.52
2022-11-25T05:16:27.196Z,10.54
2022-11-25T05:18:00.239Z,10.55
2022-11-25T05:19:47.570Z,10.56
2022-11-25T05:21:20.183Z,10.56
2022-11-25T05:22:51.840Z,10.56
2022-11-25T05:24:26.285Z,10.59
2022-11-25T05:25:59.679Z,10.59
2022-11-25T05:27:35.593Z,10.59
2022-11-25T05:29:12.332Z,10.60
2022-11-25T05:30:45.335Z,10.60
2022-11-25T05:32:17.510Z,10.58
2022-11-25T05:33:50.583Z,10.59
2022-11-25T05:35:23.209Z,10.58
2022-11-25T05:36:55.512Z,10.59
2022-11-25T05:38:28.207Z,10.64
2022-11-25T05:39:59.889Z,10.68
2022-11-25T05:41:54.856Z,10.70
2022-11-25T05:43:26.507Z,10.70
2022-11-25T05:44:58.175Z,10.71
2022-11-25T05:46:29.897Z,10.70
2022-11-25T05:48:02.485Z,10.71
2022-11-25T05:49:36.035Z,10.69
2022-11-25T05:51:09.128Z,10.69
2022-11-25T05:52:40.896Z,10.70
2022-11-25T05:54:13.815Z,10.70
2022-11-25T05:55:54.142Z,10.69
2022-11-25T05:57:34.046Z,10.67
2022-11-25T05:59:12.552Z,10.66
2022-11-25T06:00:50.882Z,10.67
2022-11-25T06:02:22.690Z,10.65
2022-11-25T06:03:59.218Z,10.64
2022-11-25T06:05:34.691Z,10.65
2022-11-25T06:07:07.368Z,10.65
2022-11-25T06:08:39.752Z,10.67
2022-11-25T06:10:12.125Z,10.69
2022-11-25T06:11:45.657Z,10.71
2022-11-25T06:13:17.855Z,10.72
2022-11-25T06:14:50.958Z,10.73
2022-11-25T06:16:23.628Z,10.73
2022-11-25T06:18:05.291Z,10.74
2022-11-25T06:19:38.663Z,10.73
2022-11-25T06:21:12.715Z,10.72
2022-11-25T06:22:44.405Z,10.72
2022-11-25T06:24:16.139Z,10.72
2022-11-25T06:25:50.136Z,10.71
2022-11-25T06:27:21.828Z,10.70
2022-11-25T06:28:55.250Z,10.68
2022-11-25T06:30:27.718Z,10.67
2022-11-25T06:32:12.766Z,10.66
2022-11-25T06:33:53.949Z,10.67
2022-11-25T06:35:25.625Z,10.68
2022-11-25T06:37:02.419Z,10.73
2022-11-25T06:38:34.536Z,10.74
2022-11-25T06:40:07.912Z,10.74
2022-11-25T06:41:39.535Z,10.71
2022-11-25T06:43:11.199Z,10.71
2022-11-25T06:44:42.875Z,10.69
2022-11-25T06:46:19.799Z,10.66
2022-11-25T06:47:56.889Z,10.61
2022-11-25T06:49:29.398Z,10.58
2022-11-25T06:51:03.297Z,10.51
2022-11-25T06:52:36.521Z,10.48
2022-11-25T06:54:08.542Z,10.43
2022-11-25T06:55:40.147Z,10.41
2022-11-25T06:57:12.758Z,10.38
2022-11-25T06:58:46.358Z,10.38
2022-11-25T07:00:19.042Z,10.37
2022-11-25T07:01:50.860Z,10.36
2022-11-25T07:03:22.605Z,10.34
2022-11-25T07:04:54.328Z,10.35
2022-11-25T07:06:26.303Z,10.35
2022-11-25T07:07:59.334Z,10.35
2022-11-25T07:09:31.322Z,10.33
2022-11-25T07:11:04.555Z,10.32
2022-11-25T07:12:36.195Z,10.31
2022-11-25T07:14:11.410Z,10.30
2022-11-25T07:15:43.171Z,10.29
2022-11-25T07:17:14.808Z,10.29
2022-11-25T07:18:46.537Z,10.30
2022-11-25T07:20:18.186Z,10.31
2022-11-25T07:21:49.895Z,10.33
2022-11-25T07:23:22.991Z,10.34
2022-11-25T07:24:54.630Z,10.32
2022-11-25T07:26:27.979Z,10.31
2022-11-25T07:27:59.869Z,10.33
2022-11-25T07:31:29.105Z,10.30
2022-11-25T07:33:03.636Z,10.30
2022-11-25T07:34:35.358Z,10.28
2022-11-25T07:36:09.536Z,10.25
2022-11-25T07:37:41.249Z,10.25
2022-11-25T07:39:17.191Z,10.24
2022-11-25T07:40:50.472Z,10.21
2022-11-25T07:42:22.101Z,10.21
2022-11-25T07:43:55.550Z,10.19
2022-11-25T07:45:28.929Z,10.17
2022-11-25T07:47:11.565Z,10.15
2022-11-25T07:48:44.154Z,10.13
2022-11-25T07:50:15.984Z,10.12
2022-11-25T07:51:50.106Z,10.15
2022-11-25T07:53:21.894Z,10.17
2022-11-25T07:54:54.947Z,10.22
2022-11-25T07:56:27.650Z,10.24
2022-11-25T07:57:59.253Z,10.23
2022-11-25T07:59:30.939Z,10.25
2022-11-25T08:01:03.528Z,10.29
2022-11-25T08:02:35.212Z,10.30
2022-11-25T08:04:07.224Z,10.33
2022-11-25T08:05:38.860Z,10.34
2022-11-25T08:07:10.939Z,10.32
2022-11-25T08:08:43.318Z,10.33
2022-11-25T08:10:16.539Z,10.33
2022-11-25T08:11:49.418Z,10.33
2022-11-25T08:13:21.209Z,10.35
2022-11-25T08:14:52.834Z,10.37
2022-11-25T08:16:27.349Z,10.38
2022-11-25T08:17:59.148Z,10.43
2022-11-25T08:19:31.535Z,10.45
2022-11-25T08:21:05.569Z,10.47
2022-11-25T08:22:37.298Z,10.48
2022-11-25T08:24:13.156Z,10.50
2022-11-25T08:25:50.293Z,10.50
2022-11-25T08:27:22.337Z,10.49
2022-11-25T08:28:54.764Z,10.50
2022-11-25T08:30:26.890Z,10.47
2022-11-25T08:31:58.516Z,10.46
2022-11-25T08:33:30.202Z,10.44
2022-11-25T08:35:01.890Z,10.46
2022-11-25T08:36:35.630Z,10.51
2022-11-25T08:38:08.944Z,10.58
2022-11-25T08:39:56.427Z,10.63
2022-11-25T08:41:31.911Z,10.68
2022-11-25T08:43:04.013Z,10.73
2022-11-25T08:44:36.482Z,10.77
2022-11-25T08:46:10.560Z,10.82
2022-11-25T08:47:42.262Z,10.87
2022-11-25T08:49:16.723Z,10.92
2022-11-25T08:50:51.984Z,10.95
2022-11-25T08:52:23.656Z,10.98
2022-11-25T08:53:56.297Z,11.00
2022-11-25T08:55:28.550Z,11.03
2022-11-25T08:57:01.867Z,11.06
2022-11-25T08:58:34.640Z,11.11
2022-11-25T09:00:07.928Z,11.16
2022-11-25T09:01:39.617Z,11.20
2022-11-25T09:03:12.595Z,11.21
2022-11-25T09:04:44.656Z,11.21
2022-11-25T09:06:19.407Z,11.21
2022-11-25T09:07:51.116Z,11.25
2022-11-25T09:09:22.832Z,11.32
2022-11-25T09:10:54.723Z,11.37
2022-11-25T09:12:28.399Z,11.43
2022-11-25T09:14:00.186Z,11.51
2022-11-25T09:15:32.682Z,11.55
2022-11-25T09:17:09.976Z,11.57
2022-11-25T09:18:41.794Z,11.60
2022-11-25T09:20:13.590Z,11.65
2022-11-25T09:21:45.279Z,11.66
2022-11-25T09:23:16.947Z,11.66
2022-11-25T09:24:48.949Z,11.69
2022-11-25T09:26:23.901Z,11.71
2022-11-25T09:27:57.350Z,11.69
2022-11-25T09:29:30.846Z,11.62
2022-11-25T09:31:07.533Z,11.57
2022-11-25T09:32:39.235Z,11.56
2022-11-25T09:34:10.967Z,11.60
2022-11-25T09:35:42.842Z,11.66
2022-11-25T09:37:14.761Z,11.66
2022-11-25T09:38:46.534Z,11.68
2022-11-25T09:40:20.394Z,11.73
2022-11-25T09:42:23.566Z,11.77
2022-11-25T09:44:23.921Z,11.79
2022-11-25T09:46:26.154Z,11.80
2022-11-25T09:48:13.573Z,11.73
2022-11-25T09:49:58.034Z,11.75
2022-11-25T09:51:39.080Z,11.73
2022-11-25T09:53:21.801Z,11.81
2022-11-25T09:55:02.722Z,11.83
2022-11-25T09:56:40.531Z,11.87
2022-11-25T09:58:25.619Z,11.95
2022-11-25T10:00:05.587Z,12.02
2022-11-25T10:01:48.075Z,12.04
2022-11-25T10:03:29.956Z,12.06
2022-11-25T10:05:08.597Z,12.09
2022-11-25T10:06:49.435Z,12.13
2022-11-25T10:08:27.627Z,12.19
2022-11-25T10:10:01.331Z,12.18
2022-11-25T10:11:49.212Z,12.21
2022-11-25T10:13:29.047Z,12.26
2022-11-25T10:15:04.761Z,12.28
2022-11-25T10:16:51.263Z,12.33
2022-11-25T10:18:30.370Z,12.32
2022-11-25T10:20:06.322Z,12.32
2022-11-25T10:21:38.080Z,12.30
2022-11-25T10:23:15.286Z,12.34
2022-11-25T10:24:47.426Z,12.39
2022-11-25T10:26:23.233Z,12.40
2022-11-25T10:27:58.822Z,12.41
2022-11-25T10:29:30.883Z,12.42
2022-11-25T10:31:06.768Z,12.47
2022-11-25T10:32:43.320Z,12.56
2022-11-25T10:34:23.811Z,12.67
2022-11-25T10:35:58.866Z,12.71
2022-11-25T10:37:38.171Z,12.69
2022-11-25T10:39:15.104Z,12.68
2022-11-25T10:40:50.108Z,12.79
2022-11-25T10:42:23.861Z,12.81
2022-11-25T10:43:55.605Z,12.77
2022-11-25T10:45:31.998Z,12.80
2022-11-25T10:47:17.795Z,12.85
2022-11-25T10:48:58.932Z,12.90
2022-11-25T10:50:40.452Z,12.93
2022-11-25T10:52:13.673Z,12.88
2022-11-25T10:54:22.745Z,12.89
2022-11-25T10:56:03.536Z,12.89
2022-11-25T10:57:37.362Z,12.96
2022-11-25T10:59:13.635Z,13.01
2022-11-25T11:00:45.459Z,13.04
2022-11-25T11:02:23.915Z,12.98
2022-11-25T11:04:05.590Z,13.01
2022-11-25T11:05:46.608Z,13.01
2022-11-25T11:07:18.583Z,13.04
2022-11-25T11:08:50.192Z,13.08
2022-11-25T11:10:23.736Z,13.08
2022-11-25T11:11:55.550Z,13.12
2022-11-25T11:13:33.110Z,13.15
2022-11-25T11:15:15.917Z,13.17
2022-11-25T11:16:54.226Z,13.24
2022-11-25T11:18:31.037Z,13.28
2022-11-25T11:20:15.091Z,13.30
2022-11-25T11:21:46.849Z,13.25
2022-11-25T11:23:18.965Z,13.29
2022-11-25T11:25:06.006Z,13.35
2022-11-25T11:26:38.675Z,13.34
2022-11-25T11:28:33.216Z,13.29
2022-11-25T11:30:16.822Z,13.21
2022-11-25T11:31:56.928Z,13.22
2022-11-25T11:33:33.073Z,13.21
2022-11-25T11:35:13.109Z,13.24
2022-11-25T11:36:50.529Z,13.17
2022-11-25T11:38:31.445Z,13.17
2022-11-25T11:40:19.427Z,13.17
2022-11-25T11:41:59.286Z,13.15
2022-11-25T11:43:45.990Z,13.11
2022-11-25T11:45:35.600Z,13.11
2022-11-25T11:47:19.691Z,13.07
2022-11-25T11:49:02.716Z,13.07
2022-11-25T11:50:39.999Z,13.06
2022-11-25T11:52:20.187Z,13.07
2022-11-25T11:54:00.751Z,13.11
2022-11-25T11:56:26.650Z,13.07
2022-11-25T11:57:59.661Z,13.09
2022-11-25T11:59:46.177Z,13.13
2022-11-25T12:01:35.095Z,13.13
2022-11-25T12:03:13.121Z,13.10
2022-11-25T12:04:52.216Z,13.04
2022-11-25T12:06:27.575Z,12.95
2022-11-25T12:08:07.892Z,12.89
2022-11-25T12:09:48.663Z,12.90
2022-11-25T12:11:24.737Z,12.88
2022-11-25T12:13:06.945Z,12.90
2022-11-25T12:14:44.152Z,12.95
2022-11-25T12:16:23.846Z,13.00
2022-11-25T12:18:00.494Z,13.04
2022-11-25T12:19:41.451Z,13.12
2022-11-25T12:21:31.518Z,13.19
2022-11-25T12:23:06.178Z,13.22
2022-11-25T12:24:42.467Z,13.22
2022-11-25T12:26:20.821Z,13.23
2022-11-25T12:27:59.603Z,13.26
2022-11-25T12:29:39.634Z,13.34
2022-11-25T12:31:13.517Z,13.44
2022-11-25T12:33:03.557Z,13.49
2022-11-25T12:34:38.985Z,13.50
2022-11-25T12:36:16.593Z,13.57
2022-11-25T12:37:56.638Z,13.61
2022-11-25T12:39:34.144Z,13.56
2022-11-25T12:41:16.332Z,13.57
2022-11-25T12:42:49.305Z,13.58
2022-11-25T12:44:26.654Z,13.60
2022-11-25T12:46:13.740Z,13.66
2022-11-25T12:47:45.556Z,13.68
2022-11-25T12:49:20.261Z,13.70
2022-11-25T12:51:08.006Z,13.77
2022-11-25T12:52:53.052Z,13.78
2022-11-25T12:54:41.985Z,13.82
2022-11-25T12:56:21.254Z,13.85
2022-11-25T12:58:18.859Z,13.83
2022-11-25T13:00:39.998Z,13.88
2022-11-25T13:02:12.638Z,13.90
2022-11-25T13:04:07.632Z,13.95
2022-11-25T13:06:06.008Z,14.04
2022-11-25T13:07:47.801Z,14.16
2022-11-25T13:09:38.977Z,14.28
2022-11-25T13:11:32.425Z,14.43
2022-11-25T13:13:26.102Z,14.48
2022-11-25T13:15:32.408Z,14.56
2022-11-25T13:17:10.089Z,14.60
2022-11-25T13:18:44.466Z,14.68
2022-11-25T13:20:39.015Z,14.74
2022-11-25T13:22:29.813Z,14.76
2022-11-25T13:24:01.843Z,14.78
2022-11-25T13:25:36.453Z,14.78
2022-11-25T13:27:30.091Z,14.88
2022-11-25T13:29:06.667Z,14.94
2022-11-25T13:30:39.855Z,14.93
2022-11-25T13:32:47.024Z,14.82
2022-11-25T13:34:26.804Z,14.82
2022-11-25T13:35:58.510Z,14.75
2022-11-25T13:37:38.264Z,14.69
2022-11-25T13:39:15.967Z,14.62
2022-11-25T13:40:56.688Z,14.59
2022-11-25T13:42:28.458Z,14.55
2022-11-25T13:44:04.669Z,14.52
2022-11-25T13:45:39.268Z,14.48
2022-11-25T13:47:31.597Z,14.42
2022-11-25T13:49:05.617Z,14.38
2022-11-25T13:51:03.304Z,14.33
2022-11-25T13:52:36.333Z,14.31
2022-11-25T13:54:16.169Z,14.30
2022-11-25T13:55:50.342Z,14.25
2022-11-25T13:57:27.044Z,14.23
2022-11-25T13:59:35.002Z,14.22
2022-11-25T14:01:26.308Z,14.17
2022-11-25T14:03:34.683Z,14.08
2022-11-25T14:05:29.428Z,13.99
2022-11-25T14:07:15.706Z,13.97
2022-11-25T14:08:56.519Z,13.95
2022-11-25T14:10:45.899Z,13.97
2022-11-25T14:12:38.694Z,13.96
2022-11-25T14:14:25.574Z,13.94
2022-11-25T14:16:15.810Z,13.93
2022-11-25T14:19:12.017Z,13.91
2022-11-25T14:20:38.825Z,13.92
2022-11-25T14:22:32.046Z,13.92
2022-11-25T14:24:15.724Z,13.82
2022-11-25T14:25:50.932Z,13.87
2022-11-25T14:27:29.208Z,13.91
2022-11-25T14:29:07.121Z,13.93
2022-11-25T14:30:50.226Z,13.96
2022-11-25T14:32:33.577Z,13.97
2022-11-25T14:34:12.469Z,14.01
2022-11-25T14:35:50.355Z,14.02
2022-11-25T14:37:29.585Z,13.98
2022-11-25T14:39:05.972Z,13.97
2022-11-25T14:40:43.849Z,14.03
2022-11-25T14:42:17.724Z,14.05
2022-11-25T14:43:56.404Z,14.10
2022-11-25T14:45:30.196Z,14.15
2022-11-25T14:47:04.740Z,14.13
2022-11-25T14:48:37.077Z,14.13
2022-11-25T14:52:06.279Z,14.13
2022-11-25T14:53:46.020Z,14.13
2022-11-25T14:55:27.792Z,14.10
2022-11-25T14:57:01.379Z,14.05
2022-11-25T14:58:33.362Z,14.01
2022-11-25T15:00:10.594Z,13.97
2022-11-25T15:01:52.849Z,13.95
2022-11-25T15:03:24.802Z,13.92
2022-11-25T15:05:16.335Z,13.87
2022-11-25T15:06:51.868Z,13.83
2022-11-25T15:08:24.923Z,13.80
2022-11-25T15:09:56.629Z,13.75
2022-11-25T15:11:31.652Z,13.74
2022-11-25T15:13:12.452Z,13.73
2022-11-25T15:14:50.211Z,13.73
2022-11-25T15:16:29.989Z,13.70
2022-11-25T15:18:05.593Z,13.63
2022-11-25T15:19:37.874Z,13.57
2022-11-25T15:21:14.524Z,13.55
2022-11-25T15:22:46.453Z,13.54
2022-11-25T15:24:23.402Z,13.50
2022-11-25T15:25:55.767Z,13.44
2022-11-25T15:27:28.685Z,13.38
2022-11-25T15:29:02.407Z,13.32
2022-11-25T15:30:34.395Z,13.31
2022-11-25T15:32:14.923Z,13.31
2022-11-25T15:33:54.392Z,13.31
2022-11-25T15:35:27.440Z,13.30
2022-11-25T15:37:01.048Z,13.26
2022-11-25T15:38:40.875Z,13.19
2022-11-25T15:40:31.191Z,13.14
2022-11-25T15:42:07.691Z,13.12
2022-11-25T15:43:44.756Z,13.13
2022-11-25T15:45:21.654Z,13.14
2022-11-25T15:46:59.621Z,13.16
2022-11-25T15:48:37.271Z,13.16
2022-11-25T15:50:22.749Z,13.14
2022-11-25T15:51:59.363Z,13.12
2022-11-25T15:53:37.084Z,13.11
2022-11-25T15:55:20.035Z,13.12
2022-11-25T15:56:56.103Z,13.12
2022-11-25T15:58:28.088Z,13.11
2022-11-25T16:00:14.781Z,13.05
2022-11-25T16:01:46.801Z,12.98
2022-11-25T16:03:20.140Z,12.94
2022-11-25T16:05:08.216Z,12.92
2022-11-25T16:06:53.097Z,12.85
2022-11-25T16:08:33.696Z,12.82
2022-11-25T16:10:17.799Z,12.82
2022-11-25T16:11:49.512Z,12.84
2022-11-25T16:13:33.429Z,12.86
2022-11-25T16:15:16.155Z,12.84
2022-11-25T16:16:48.162Z,12.84
2022-11-25T16:18:39.925Z,12.81
2022-11-25T16:20:19.914Z,12.78
2022-11-25T16:21:55.877Z,12.75
2022-11-25T16:23:27.885Z,12.71
2022-11-25T16:25:02.628Z,12.67
2022-11-25T16:26:38.298Z,12.67
2022-11-25T16:28:20.481Z,12.67
2022-11-25T16:29:55.142Z,12.65
2022-11-25T16:31:27.533Z,12.61
2022-11-25T16:32:59.536Z,12.61
2022-11-25T16:34:31.812Z,12.65
2022-11-25T16:36:08.321Z,12.62
2022-11-25T16:37:47.114Z,12.65
2022-11-25T16:39:21.046Z,12.68
2022-11-25T16:40:53.157Z,12.73
2022-11-25T16:42:24.824Z,12.76
2022-11-25T16:44:00.892Z,12.72
2022-11-25T16:45:34.405Z,12.67
2022-11-25T16:47:09.764Z,12.64
2022-11-25T16:48:41.409Z,12.64
2022-11-25T16:50:14.427Z,12.65
2022-11-25T16:51:50.361Z,12.67
2022-11-25T16:53:22.039Z,12.66
2022-11-25T16:54:53.676Z,12.68
2022-11-25T16:56:28.491Z,12.69
2022-11-25T16:58:00.165Z,12.66
2022-11-25T16:59:35.536Z,12.67
2022-11-25T17:01:12.620Z,12.68
2022-11-25T17:02:44.926Z,12.71
2022-11-25T17:04:17.653Z,12.70
2022-11-25T17:05:49.486Z,12.65
2022-11-25T17:07:38.374Z,12.62
2022-11-25T17:09:10.935Z,12.61
2022-11-25T17:10:44.128Z,12.59
2022-11-25T17:12:18.325Z,12.55
2022-11-25T17:13:52.596Z,12.55
2022-11-25T17:15:30.255Z,12.54
2022-11-25T17:17:05.522Z,12.57
2022-11-25T17:18:39.680Z,12.60
2022-11-25T17:20:15.608Z,12.63
2022-11-25T17:21:47.288Z,12.65
2022-11-25T17:23:22.446Z,12.67
2022-11-25T17:24:54.166Z,12.68
2022-11-25T17:26:35.540Z,12.68
2022-11-25T17:28:14.350Z,12.70
2022-11-25T17:29:47.223Z,12.69
2022-11-25T17:31:19.308Z,12.69
2022-11-25T17:32:57.160Z,12.68
2022-11-25T17:34:28.930Z,12.66
2022-11-25T17:36:00.751Z,12.65
2022-11-25T17:37:32.928Z,12.65
2022-11-25T17:39:05.960Z,12.66
2022-11-25T17:40:38.172Z,12.66
2022-11-25T17:42:13.103Z,12.57
2022-11-25T17:43:47.561Z,12.48
2022-11-25T17:45:21.356Z,12.39
2022-11-25T17:46:53.468Z,12.33
2022-11-25T17:48:25.086Z,12.27
2022-11-25T17:49:57.803Z,12.22
2022-11-25T17:51:29.534Z,12.11
2022-11-25T17:53:01.228Z,12.11
2022-11-25T17:54:35.829Z,12.09
2022-11-25T17:56:18.971Z,12.09
2022-11-25T17:57:50.939Z,12.08
2022-11-25T17:59:25.551Z,12.06
2022-11-25T18:00:57.235Z,12.03
2022-11-25T18:02:28.935Z,11.99
2022-11-25T18:04:09.964Z,11.99
2022-11-25T18:05:45.984Z,11.94
2022-11-25T18:07:17.820Z,11.91
2022-11-25T18:08:49.797Z,11.90
2022-11-25T18:10:26.359Z,11.93
2022-11-25T18:12:02.926Z,11.99
2022-11-25T18:13:38.499Z,12.00
2022-11-25T18:15:15.653Z,11.98
2022-11-25T18:16:47.587Z,12.02
2022-11-25T18:18:21.372Z,12.10
2022-11-25T18:19:55.186Z,12.14
2022-11-25T18:21:27.569Z,12.16
2022-11-25T18:23:00.808Z,12.20
2022-11-25T18:24:32.460Z,12.18
2022-11-25T18:26:05.932Z,12.19
2022-11-25T18:27:37.818Z,12.24
2022-11-25T18:29:15.135Z,12.21
2022-11-25T18:30:48.363Z,12.12
2022-11-25T18:32:20.356Z,12.05
2022-11-25T18:33:52.078Z,11.95
2022-11-25T18:35:25.480Z,11.92
2022-11-25T18:36:57.204Z,11.91
2022-11-25T18:38:28.904Z,11.94
2022-11-25T18:40:00.560Z,11.96
2022-11-25T18:41:33.693Z,11.98
2022-11-25T18:43:06.194Z,11.99
2022-11-25T18:44:42.102Z,11.99
2022-11-25T18:46:14.806Z,11.98
2022-11-25T18:47:46.708Z,11.98
2022-11-25T18:49:18.575Z,11.93
2022-11-25T18:50:51.836Z,11.86
2022-11-25T18:52:23.789Z,11.77
2022-11-25T18:53:55.467Z,11.69
2022-11-25T18:55:27.514Z,11.58
2022-11-25T18:57:00.737Z,11.53
2022-11-25T18:58:32.977Z,11.49
2022-11-25T19:01:59.172Z,11.53
2022-11-25T19:03:30.904Z,11.59
2022-11-25T19:05:02.778Z,11.69
2022-11-25T19:06:34.493Z,11.74
2022-11-25T19:08:06.169Z,11.73
2022-11-25T19:09:37.809Z,11.72
2022-11-25T19:11:14.767Z,11.77
2022-11-25T19:12:51.154Z,11.84
2022-11-25T19:14:29.911Z,11.89
2022-11-25T19:16:05.766Z,11.93
2022-11-25T19:17:37.554Z,11.95
2022-11-25T19:19:12.884Z,11.95
2022-11-25T19:20:44.612Z,11.92
2022-11-25T19:22:17.722Z,11.89
2022-11-25T19:23:49.662Z,11.90
2022-11-25T19:25:22.210Z,11.92
2022-11-25T19:26:56.202Z,11.93
2022-11-25T19:28:31.372Z,11.96
2022-11-25T19:30:04.220Z,11.98
2022-11-25T19:31:35.988Z,11.99
2022-11-25T19:33:13.299Z,11.99
2022-11-25T19:34:47.859Z,11.94
2022-11-25T19:36:23.655Z,11.91
2022-11-25T19:37:55.332Z,11.87
2022-11-25T19:39:27.831Z,11.87
2022-11-25T19:40:59.552Z,11.84
2022-11-25T19:42:31.772Z,11.81
2022-11-25T19:44:04.862Z,11.78
2022-11-25T19:45:37.151Z,11.77
2022-11-25T19:47:16.035Z,11.77
2022-11-25T19:48:47.811Z,11.75
2022-11-25T19:50:22.356Z,11.76
2022-11-25T19:51:55.806Z,11.73
2022-11-25T19:53:33.484Z,11.72
2022-11-25T19:55:13.664Z,11.68
2022-11-25T19:56:45.855Z,11.64
2022-11-25T19:58:17.698Z,11.61
2022-11-25T19:59:50.840Z,11.58
2022-11-25T20:01:31.436Z,11.59
2022-11-25T20:03:03.967Z,11.57
2022-11-25T20:04:36.214Z,11.56
2022-11-25T20:06:08.606Z,11.52
2022-11-25T20:07:41.975Z,11.50
2022-11-25T20:09:13.737Z,11.48
2022-11-25T20:10:45.659Z,11.47
2022-11-25T20:12:21.497Z,11.47
2022-11-25T20:13:53.245Z,11.45
2022-11-25T20:15:26.493Z,11.43
2022-11-25T20:16:58.240Z,11.36
2022-11-25T20:18:30.262Z,11.35
2022-11-25T20:20:06.425Z,11.34
2022-11-25T20:21:40.066Z,11.30
2022-11-25T20:23:16.084Z,11.28
2022-11-25T20:24:47.836Z,11.29
2022-11-25T20:26:26.803Z,11.29
2022-11-25T20:27:58.599Z,11.26
2022-11-25T20:29:30.839Z,11.25
2022-11-25T20:31:03.997Z,11.25
2022-11-25T20:32:35.638Z,11.25
2022-11-25T20:34:07.359Z,11.25
2022-11-25T20:35:39.843Z,11.24
2022-11-25T20:37:15.821Z,11.22
2022-11-25T20:38:51.462Z,11.19
2022-11-25T20:40:26.218Z,11.17
2022-11-25T20:41:57.841Z,11.15
2022-11-25T20:43:31.587Z,11.15
2022-11-25T20:45:04.031Z,11.13
2022-11-25T20:46:37.017Z,11.14
2022-11-25T20:48:10.804Z,11.12
2022-11-25T20:49:43.459Z,11.09